首页
METAR-TAF:

METAR-TAF

机场 :

Golden, 不列颠哥伦比亚, 加拿大

纬度: 51-18N, 经度: 116-59W, 海拔: 785米

当前天气观测

该预报发布于15分钟前的17:00 UTC
风速3节,风向西北,在西转西北之间变化
温度 15°C
湿度 67%
气压 1015 hPa
能見度: 32.2公里
少量云层高于5500英尺
散云层高于8800英尺, 塔状积云.
多云层高于14000英尺
多云层高于19000英尺
小阵雨

METAR: CYGE 081700Z 32003KT 300V010 20SM -SHRA FEW055 SCT088TCU BKN140 BKN190 15/09 A2998 RMK CU1TCU3AC1AC1 AC TR TCU ALQDS SLP156 DENSITY ALT 3200FT

时间: 11:15 (17:15 UTC)


TAF: 丢失

超过4000个机场的气象观测和天气预报(METAR&TAF报告)。

可查询的气象台以黄色和红色小点在地图上表示。

将鼠标移到小点上方,可查看气象台名称。

然后点击查看天气观测和预报。

如需切换地图:点击带黑十字的绿色按钮放大地图;点击带横线的绿色按钮缩小地图;或者点击绿色箭头查看邻近地区的地图。


METAR-TAF: